sensor_id;sensor_type;location;lat;lon;timestamp;P1;durP1;ratioP1;P2;durP2;ratioP2
9254;SDS011;4663;49.120;9.730;2023-01-08T00:00:52;30.20;;;28.30;;
9254;SDS011;4663;49.120;9.730;2023-01-08T00:03:17;30.67;;;28.67;;
9254;SDS011;4663;49.120;9.730;2023-01-08T00:05:43;32.53;;;30.30;;
9254;SDS011;4663;49.120;9.730;2023-01-08T00:08:08;30.73;;;28.70;;
9254;SDS011;4663;49.120;9.730;2023-01-08T00:10:34;31.87;;;29.77;;
9254;SDS011;4663;49.120;9.730;2023-01-08T00:13:00;32.23;;;30.03;;
9254;SDS011;4663;49.120;9.730;2023-01-08T00:15:26;38.27;;;35.80;;
9254;SDS011;4663;49.120;9.730;2023-01-08T00:17:52;37.30;;;34.97;;
9254;SDS011;4663;49.120;9.730;2023-01-08T00:20:18;37.10;;;34.93;;
9254;SDS011;4663;49.120;9.730;2023-01-08T00:22:43;39.60;;;37.20;;
9254;SDS011;4663;49.120;9.730;2023-01-08T00:25:08;39.07;;;36.67;;
9254;SDS011;4663;49.120;9.730;2023-01-08T00:27:34;38.73;;;36.23;;
9254;SDS011;4663;49.120;9.730;2023-01-08T00:29:59;38.77;;;36.30;;
9254;SDS011;4663;49.120;9.730;2023-01-08T00:32:24;37.47;;;35.00;;
9254;SDS011;4663;49.120;9.730;2023-01-08T00:34:50;37.70;;;34.70;;
9254;SDS011;4663;49.120;9.730;2023-01-08T00:37:18;33.23;;;31.07;;
9254;SDS011;4663;49.120;9.730;2023-01-08T00:39:44;29.70;;;27.63;;
9254;SDS011;4663;49.120;9.730;2023-01-08T00:42:09;27.03;;;25.20;;
9254;SDS011;4663;49.120;9.730;2023-01-08T00:44:35;26.17;;;24.47;;
9254;SDS011;4663;49.120;9.730;2023-01-08T00:47:01;25.93;;;24.40;;
9254;SDS011;4663;49.120;9.730;2023-01-08T00:49:26;27.00;;;25.23;;
9254;SDS011;4663;49.120;9.730;2023-01-08T00:51:52;25.17;;;23.43;;
9254;SDS011;4663;49.120;9.730;2023-01-08T00:54:17;23.83;;;22.33;;
9254;SDS011;4663;49.120;9.730;2023-01-08T00:56:42;22.03;;;20.67;;
9254;SDS011;4663;49.120;9.730;2023-01-08T00:59:08;23.07;;;21.40;;
9254;SDS011;4663;49.120;9.730;2023-01-08T01:01:33;20.30;;;19.00;;
9254;SDS011;4663;49.120;9.730;2023-01-08T01:03:58;20.30;;;18.97;;
9254;SDS011;4663;49.120;9.730;2023-01-08T01:06:24;19.87;;;18.43;;
9254;SDS011;4663;49.120;9.730;2023-01-08T01:08:49;20.00;;;18.57;;
9254;SDS011;4663;49.120;9.730;2023-01-08T01:11:19;17.90;;;16.63;;
9254;SDS011;4663;49.120;9.730;2023-01-08T01:13:46;19.07;;;17.77;;
9254;SDS011;4663;49.120;9.730;2023-01-08T01:16:12;18.87;;;17.60;;
9254;SDS011;4663;49.120;9.730;2023-01-08T01:18:38;18.27;;;16.93;;
9254;SDS011;4663;49.120;9.730;2023-01-08T01:21:16;19.60;;;18.00;;
9254;SDS011;4663;49.120;9.730;2023-01-08T01:23:47;18.77;;;17.47;;
9254;SDS011;4663;49.120;9.730;2023-01-08T01:26:15;17.00;;;15.80;;
9254;SDS011;4663;49.120;9.730;2023-01-08T01:28:42;17.40;;;16.20;;
9254;SDS011;4663;49.120;9.730;2023-01-08T01:31:10;17.67;;;16.47;;
9254;SDS011;4663;49.120;9.730;2023-01-08T01:33:37;20.50;;;18.90;;
9254;SDS011;4663;49.120;9.730;2023-01-08T01:36:03;19.73;;;18.23;;
9254;SDS011;4663;49.120;9.730;2023-01-08T01:38:29;18.40;;;16.97;;
9254;SDS011;4663;49.120;9.730;2023-01-08T01:40:54;17.93;;;16.63;;
9254;SDS011;4663;49.120;9.730;2023-01-08T01:46:24;17.50;;;16.20;;
9254;SDS011;4663;49.120;9.730;2023-01-08T01:48:59;17.97;;;16.60;;
9254;SDS011;4663;49.120;9.730;2023-01-08T01:51:40;17.60;;;16.17;;
9254;SDS011;4663;49.120;9.730;2023-01-08T01:54:12;17.27;;;15.80;;
9254;SDS011;4663;49.120;9.730;2023-01-08T01:56:37;22.63;;;16.07;;
9254;SDS011;4663;49.120;9.730;2023-01-08T01:59:03;17.70;;;16.47;;
9254;SDS011;4663;49.120;9.730;2023-01-08T02:01:30;18.07;;;16.57;;
9254;SDS011;4663;49.120;9.730;2023-01-08T02:03:56;17.87;;;16.57;;
9254;SDS011;4663;49.120;9.730;2023-01-08T02:13:52;17.03;;;15.73;;
9254;SDS011;4663;49.120;9.730;2023-01-08T02:16:25;17.33;;;16.13;;
9254;SDS011;4663;49.120;9.730;2023-01-08T02:19:04;16.80;;;15.60;;
9254;SDS011;4663;49.120;9.730;2023-01-08T02:21:46;17.60;;;16.40;;
9254;SDS011;4663;49.120;9.730;2023-01-08T02:24:28;17.97;;;16.63;;
9254;SDS011;4663;49.120;9.730;2023-01-08T02:27:07;17.53;;;16.23;;
9254;SDS011;4663;49.120;9.730;2023-01-08T02:29:33;17.00;;;15.80;;
9254;SDS011;4663;49.120;9.730;2023-01-08T02:31:59;17.07;;;15.77;;
9254;SDS011;4663;49.120;9.730;2023-01-08T02:34:24;16.33;;;15.17;;
9254;SDS011;4663;49.120;9.730;2023-01-08T02:36:51;16.73;;;15.63;;
9254;SDS011;4663;49.120;9.730;2023-01-08T02:39:28;16.43;;;15.33;;
9254;SDS011;4663;49.120;9.730;2023-01-08T02:42:14;16.43;;;15.33;;
9254;SDS011;4663;49.120;9.730;2023-01-08T02:47:44;17.27;;;16.07;;
9254;SDS011;4663;49.120;9.730;2023-01-08T02:55:51;16.83;;;15.70;;
9254;SDS011;4663;49.120;9.730;2023-01-08T02:58:21;18.87;;;17.57;;
9254;SDS011;4663;49.120;9.730;2023-01-08T03:00:48;20.37;;;18.77;;
9254;SDS011;4663;49.120;9.730;2023-01-08T03:03:17;20.00;;;18.53;;
9254;SDS011;4663;49.120;9.730;2023-01-08T03:05:50;19.20;;;17.83;;
9254;SDS011;4663;49.120;9.730;2023-01-08T03:08:19;19.30;;;17.97;;
9254;SDS011;4663;49.120;9.730;2023-01-08T03:10:47;20.00;;;18.53;;
9254;SDS011;4663;49.120;9.730;2023-01-08T03:13:23;19.80;;;18.43;;
9254;SDS011;4663;49.120;9.730;2023-01-08T03:15:55;21.13;;;19.70;;
9254;SDS011;4663;49.120;9.730;2023-01-08T03:18:24;20.33;;;18.93;;
9254;SDS011;4663;49.120;9.730;2023-01-08T03:20:55;19.03;;;17.57;;
9254;SDS011;4663;49.120;9.730;2023-01-08T03:23:20;18.93;;;17.60;;
9254;SDS011;4663;49.120;9.730;2023-01-08T03:25:47;19.50;;;18.27;;
9254;SDS011;4663;49.120;9.730;2023-01-08T03:28:17;21.90;;;20.37;;
9254;SDS011;4663;49.120;9.730;2023-01-08T03:30:47;20.90;;;19.43;;
9254;SDS011;4663;49.120;9.730;2023-01-08T03:33:14;20.60;;;19.20;;
9254;SDS011;4663;49.120;9.730;2023-01-08T03:35:42;21.67;;;20.20;;
9254;SDS011;4663;49.120;9.730;2023-01-08T03:38:14;20.40;;;18.93;;
9254;SDS011;4663;49.120;9.730;2023-01-08T03:40:56;20.97;;;19.53;;
9254;SDS011;4663;49.120;9.730;2023-01-08T03:43:25;19.00;;;17.60;;
9254;SDS011;4663;49.120;9.730;2023-01-08T03:45:52;21.23;;;19.60;;
9254;SDS011;4663;49.120;9.730;2023-01-08T03:48:24;22.47;;;20.23;;
9254;SDS011;4663;49.120;9.730;2023-01-08T03:50:51;22.07;;;20.43;;
9254;SDS011;4663;49.120;9.730;2023-01-08T03:53:17;22.87;;;21.37;;
9254;SDS011;4663;49.120;9.730;2023-01-08T03:55:42;21.83;;;20.27;;
9254;SDS011;4663;49.120;9.730;2023-01-08T03:58:07;22.50;;;21.00;;
9254;SDS011;4663;49.120;9.730;2023-01-08T04:00:33;23.50;;;22.10;;
9254;SDS011;4663;49.120;9.730;2023-01-08T04:02:58;23.20;;;21.77;;
9254;SDS011;4663;49.120;9.730;2023-01-08T04:05:23;24.40;;;22.80;;
9254;SDS011;4663;49.120;9.730;2023-01-08T04:07:49;26.27;;;24.70;;
9254;SDS011;4663;49.120;9.730;2023-01-08T04:10:14;25.70;;;24.10;;
9254;SDS011;4663;49.120;9.730;2023-01-08T04:12:41;29.53;;;27.73;;
9254;SDS011;4663;49.120;9.730;2023-01-08T04:15:07;28.03;;;26.27;;
9254;SDS011;4663;49.120;9.730;2023-01-08T04:17:33;29.03;;;27.30;;
9254;SDS011;4663;49.120;9.730;2023-01-08T04:19:58;30.97;;;29.10;;
9254;SDS011;4663;49.120;9.730;2023-01-08T04:22:24;31.23;;;29.43;;
9254;SDS011;4663;49.120;9.730;2023-01-08T04:24:49;35.03;;;33.07;;
9254;SDS011;4663;49.120;9.730;2023-01-08T04:27:15;34.30;;;32.33;;
9254;SDS011;4663;49.120;9.730;2023-01-08T04:29:40;37.27;;;35.07;;
9254;SDS011;4663;49.120;9.730;2023-01-08T04:32:05;38.87;;;36.70;;
9254;SDS011;4663;49.120;9.730;2023-01-08T04:34:31;38.83;;;36.67;;
9254;SDS011;4663;49.120;9.730;2023-01-08T04:36:56;37.53;;;35.33;;
9254;SDS011;4663;49.120;9.730;2023-01-08T04:39:21;39.03;;;36.90;;
9254;SDS011;4663;49.120;9.730;2023-01-08T04:41:47;37.73;;;35.67;;
9254;SDS011;4663;49.120;9.730;2023-01-08T04:44:12;39.60;;;37.17;;
9254;SDS011;4663;49.120;9.730;2023-01-08T04:46:37;40.87;;;38.50;;
9254;SDS011;4663;49.120;9.730;2023-01-08T04:49:03;42.53;;;40.07;;
9254;SDS011;4663;49.120;9.730;2023-01-08T04:51:32;42.77;;;40.43;;
9254;SDS011;4663;49.120;9.730;2023-01-08T04:53:57;38.93;;;36.53;;
9254;SDS011;4663;49.120;9.730;2023-01-08T04:56:23;44.90;;;42.40;;
9254;SDS011;4663;49.120;9.730;2023-01-08T04:58:48;43.33;;;40.93;;
9254;SDS011;4663;49.120;9.730;2023-01-08T05:01:23;39.87;;;37.63;;
9254;SDS011;4663;49.120;9.730;2023-01-08T05:03:57;43.23;;;40.87;;
9254;SDS011;4663;49.120;9.730;2023-01-08T05:06:24;41.90;;;39.43;;
9254;SDS011;4663;49.120;9.730;2023-01-08T05:08:50;38.97;;;36.73;;
9254;SDS011;4663;49.120;9.730;2023-01-08T05:11:16;37.43;;;35.30;;
9254;SDS011;4663;49.120;9.730;2023-01-08T05:13:41;35.43;;;33.50;;
9254;SDS011;4663;49.120;9.730;2023-01-08T05:16:07;36.60;;;34.63;;
9254;SDS011;4663;49.120;9.730;2023-01-08T05:18:32;36.77;;;34.67;;
9254;SDS011;4663;49.120;9.730;2023-01-08T05:21:01;34.23;;;32.23;;
9254;SDS011;4663;49.120;9.730;2023-01-08T05:23:28;36.20;;;34.13;;
9254;SDS011;4663;49.120;9.730;2023-01-08T05:25:57;36.63;;;34.57;;
9254;SDS011;4663;49.120;9.730;2023-01-08T05:28:23;36.90;;;34.87;;
9254;SDS011;4663;49.120;9.730;2023-01-08T05:30:49;37.20;;;35.00;;
9254;SDS011;4663;49.120;9.730;2023-01-08T05:33:15;39.40;;;37.10;;
9254;SDS011;4663;49.120;9.730;2023-01-08T05:35:40;33.10;;;31.17;;
9254;SDS011;4663;49.120;9.730;2023-01-08T05:38:06;34.30;;;32.23;;
9254;SDS011;4663;49.120;9.730;2023-01-08T05:40:31;32.10;;;30.17;;
9254;SDS011;4663;49.120;9.730;2023-01-08T05:43:00;33.30;;;31.43;;
9254;SDS011;4663;49.120;9.730;2023-01-08T05:45:26;32.07;;;30.30;;
9254;SDS011;4663;49.120;9.730;2023-01-08T05:47:52;32.97;;;31.00;;
9254;SDS011;4663;49.120;9.730;2023-01-08T05:50:18;33.27;;;31.33;;
9254;SDS011;4663;49.120;9.730;2023-01-08T05:52:43;31.87;;;29.97;;
9254;SDS011;4663;49.120;9.730;2023-01-08T05:55:08;32.03;;;30.13;;
9254;SDS011;4663;49.120;9.730;2023-01-08T05:57:34;30.10;;;28.40;;
9254;SDS011;4663;49.120;9.730;2023-01-08T06:00:00;28.83;;;27.27;;
9254;SDS011;4663;49.120;9.730;2023-01-08T06:02:25;28.73;;;27.10;;
9254;SDS011;4663;49.120;9.730;2023-01-08T06:04:50;27.97;;;26.33;;
9254;SDS011;4663;49.120;9.730;2023-01-08T06:07:16;27.50;;;25.77;;
9254;SDS011;4663;49.120;9.730;2023-01-08T06:09:41;25.77;;;24.13;;
9254;SDS011;4663;49.120;9.730;2023-01-08T06:12:07;25.07;;;23.60;;
9254;SDS011;4663;49.120;9.730;2023-01-08T06:14:32;22.97;;;21.57;;
9254;SDS011;4663;49.120;9.730;2023-01-08T06:16:57;19.83;;;18.73;;
9254;SDS011;4663;49.120;9.730;2023-01-08T06:19:23;19.80;;;18.60;;
9254;SDS011;4663;49.120;9.730;2023-01-08T06:21:48;18.33;;;17.20;;
9254;SDS011;4663;49.120;9.730;2023-01-08T06:24:14;18.07;;;16.97;;
9254;SDS011;4663;49.120;9.730;2023-01-08T06:26:39;16.77;;;15.73;;
9254;SDS011;4663;49.120;9.730;2023-01-08T06:29:04;17.40;;;16.30;;
9254;SDS011;4663;49.120;9.730;2023-01-08T06:31:30;16.37;;;15.37;;
9254;SDS011;4663;49.120;9.730;2023-01-08T06:33:55;15.87;;;14.97;;
9254;SDS011;4663;49.120;9.730;2023-01-08T06:36:20;18.47;;;17.40;;
9254;SDS011;4663;49.120;9.730;2023-01-08T06:38:46;18.57;;;17.50;;
9254;SDS011;4663;49.120;9.730;2023-01-08T06:41:11;19.33;;;18.23;;
9254;SDS011;4663;49.120;9.730;2023-01-08T06:43:37;20.53;;;19.33;;
9254;SDS011;4663;49.120;9.730;2023-01-08T06:46:03;21.13;;;19.90;;
9254;SDS011;4663;49.120;9.730;2023-01-08T06:48:29;24.30;;;22.53;;
9254;SDS011;4663;49.120;9.730;2023-01-08T06:50:57;26.93;;;25.53;;
9254;SDS011;4663;49.120;9.730;2023-01-08T06:53:23;35.60;;;33.83;;
9254;SDS011;4663;49.120;9.730;2023-01-08T06:55:49;41.30;;;39.13;;
9254;SDS011;4663;49.120;9.730;2023-01-08T06:58:20;41.33;;;39.30;;
9254;SDS011;4663;49.120;9.730;2023-01-08T07:00:45;40.37;;;38.40;;
9254;SDS011;4663;49.120;9.730;2023-01-08T07:03:10;40.90;;;38.93;;
9254;SDS011;4663;49.120;9.730;2023-01-08T07:05:36;40.57;;;38.60;;
9254;SDS011;4663;49.120;9.730;2023-01-08T07:08:01;36.13;;;34.37;;
9254;SDS011;4663;49.120;9.730;2023-01-08T07:10:26;35.20;;;33.47;;
9254;SDS011;4663;49.120;9.730;2023-01-08T07:12:52;35.10;;;33.43;;
9254;SDS011;4663;49.120;9.730;2023-01-08T07:15:17;30.80;;;29.17;;
9254;SDS011;4663;49.120;9.730;2023-01-08T07:17:42;28.53;;;27.13;;
9254;SDS011;4663;49.120;9.730;2023-01-08T07:20:09;25.10;;;23.90;;
9254;SDS011;4663;49.120;9.730;2023-01-08T07:22:34;22.87;;;21.73;;
9254;SDS011;4663;49.120;9.730;2023-01-08T07:25:00;20.07;;;19.07;;
9254;SDS011;4663;49.120;9.730;2023-01-08T07:27:25;20.07;;;18.63;;
9254;SDS011;4663;49.120;9.730;2023-01-08T07:29:51;23.30;;;22.13;;
9254;SDS011;4663;49.120;9.730;2023-01-08T07:32:16;22.20;;;21.10;;
9254;SDS011;4663;49.120;9.730;2023-01-08T07:34:41;20.77;;;19.73;;
9254;SDS011;4663;49.120;9.730;2023-01-08T07:37:07;20.40;;;19.50;;
9254;SDS011;4663;49.120;9.730;2023-01-08T07:39:32;18.30;;;17.40;;
9254;SDS011;4663;49.120;9.730;2023-01-08T07:41:58;20.40;;;19.40;;
9254;SDS011;4663;49.120;9.730;2023-01-08T07:44:23;18.90;;;18.00;;
9254;SDS011;4663;49.120;9.730;2023-01-08T07:46:48;18.43;;;17.53;;
9254;SDS011;4663;49.120;9.730;2023-01-08T07:49:14;22.30;;;21.07;;
9254;SDS011;4663;49.120;9.730;2023-01-08T07:51:39;18.87;;;17.97;;
9254;SDS011;4663;49.120;9.730;2023-01-08T07:54:04;18.93;;;18.03;;
9254;SDS011;4663;49.120;9.730;2023-01-08T07:56:30;19.73;;;18.77;;
9254;SDS011;4663;49.120;9.730;2023-01-08T07:58:55;18.53;;;17.63;;
9254;SDS011;4663;49.120;9.730;2023-01-08T08:01:21;19.43;;;18.43;;
9254;SDS011;4663;49.120;9.730;2023-01-08T08:03:46;19.17;;;18.27;;
9254;SDS011;4663;49.120;9.730;2023-01-08T08:06:12;18.73;;;17.83;;
9254;SDS011;4663;49.120;9.730;2023-01-08T08:08:37;18.17;;;17.37;;
9254;SDS011;4663;49.120;9.730;2023-01-08T08:11:02;18.87;;;17.87;;
9254;SDS011;4663;49.120;9.730;2023-01-08T08:13:28;18.83;;;17.93;;
9254;SDS011;4663;49.120;9.730;2023-01-08T08:15:53;18.80;;;17.90;;
9254;SDS011;4663;49.120;9.730;2023-01-08T08:18:19;20.17;;;19.07;;
9254;SDS011;4663;49.120;9.730;2023-01-08T08:20:44;21.63;;;20.57;;
9254;SDS011;4663;49.120;9.730;2023-01-08T08:23:11;24.50;;;23.27;;
9254;SDS011;4663;49.120;9.730;2023-01-08T08:25:38;28.60;;;27.10;;
9254;SDS011;4663;49.120;9.730;2023-01-08T08:28:04;28.37;;;26.97;;
9254;SDS011;4663;49.120;9.730;2023-01-08T08:30:31;26.57;;;25.30;;
9254;SDS011;4663;49.120;9.730;2023-01-08T08:32:59;29.40;;;28.03;;
9254;SDS011;4663;49.120;9.730;2023-01-08T08:35:26;28.77;;;27.40;;
9254;SDS011;4663;49.120;9.730;2023-01-08T08:37:52;32.20;;;30.63;;
9254;SDS011;4663;49.120;9.730;2023-01-08T08:40:18;33.20;;;31.63;;
9254;SDS011;4663;49.120;9.730;2023-01-08T08:42:43;34.63;;;32.87;;
9254;SDS011;4663;49.120;9.730;2023-01-08T08:45:09;38.30;;;36.50;;
9254;SDS011;4663;49.120;9.730;2023-01-08T08:47:34;34.83;;;33.13;;
9254;SDS011;4663;49.120;9.730;2023-01-08T08:50:00;35.07;;;33.13;;
9254;SDS011;4663;49.120;9.730;2023-01-08T08:52:26;34.33;;;32.57;;
9254;SDS011;4663;49.120;9.730;2023-01-08T08:54:51;38.07;;;36.30;;
9254;SDS011;4663;49.120;9.730;2023-01-08T08:57:17;35.87;;;34.20;;
9254;SDS011;4663;49.120;9.730;2023-01-08T08:59:42;38.80;;;36.97;;
9254;SDS011;4663;49.120;9.730;2023-01-08T09:02:09;37.33;;;35.57;;
9254;SDS011;4663;49.120;9.730;2023-01-08T09:04:35;37.70;;;35.93;;
9254;SDS011;4663;49.120;9.730;2023-01-08T09:07:01;38.67;;;36.87;;
9254;SDS011;4663;49.120;9.730;2023-01-08T09:09:26;39.30;;;37.37;;
9254;SDS011;4663;49.120;9.730;2023-01-08T09:11:52;41.13;;;39.17;;
9254;SDS011;4663;49.120;9.730;2023-01-08T09:14:18;41.80;;;39.63;;
9254;SDS011;4663;49.120;9.730;2023-01-08T09:16:44;43.20;;;41.13;;
9254;SDS011;4663;49.120;9.730;2023-01-08T09:19:09;41.50;;;39.57;;
9254;SDS011;4663;49.120;9.730;2023-01-08T09:21:35;41.97;;;40.00;;
9254;SDS011;4663;49.120;9.730;2023-01-08T09:24:01;41.23;;;39.27;;
9254;SDS011;4663;49.120;9.730;2023-01-08T09:26:27;44.83;;;42.63;;
9254;SDS011;4663;49.120;9.730;2023-01-08T09:28:54;46.00;;;43.57;;
9254;SDS011;4663;49.120;9.730;2023-01-08T09:31:20;44.50;;;42.20;;
9254;SDS011;4663;49.120;9.730;2023-01-08T09:33:46;45.80;;;43.60;;
9254;SDS011;4663;49.120;9.730;2023-01-08T09:36:12;48.40;;;46.03;;
9254;SDS011;4663;49.120;9.730;2023-01-08T09:38:37;49.73;;;47.33;;
9254;SDS011;4663;49.120;9.730;2023-01-08T09:41:04;51.07;;;48.47;;
9254;SDS011;4663;49.120;9.730;2023-01-08T09:43:34;47.47;;;45.17;;
9254;SDS011;4663;49.120;9.730;2023-01-08T09:46:03;49.70;;;47.33;;
9254;SDS011;4663;49.120;9.730;2023-01-08T09:48:32;51.23;;;48.80;;
9254;SDS011;4663;49.120;9.730;2023-01-08T09:51:01;49.87;;;47.40;;
9254;SDS011;4663;49.120;9.730;2023-01-08T09:53:27;50.40;;;47.90;;
9254;SDS011;4663;49.120;9.730;2023-01-08T09:56:02;49.30;;;46.87;;
9254;SDS011;4663;49.120;9.730;2023-01-08T09:58:35;49.67;;;47.27;;
9254;SDS011;4663;49.120;9.730;2023-01-08T10:01:04;49.77;;;47.37;;
9254;SDS011;4663;49.120;9.730;2023-01-08T10:03:36;48.73;;;46.40;;
9254;SDS011;4663;49.120;9.730;2023-01-08T10:06:25;49.93;;;47.43;;
9254;SDS011;4663;49.120;9.730;2023-01-08T10:08:51;48.43;;;46.10;;
9254;SDS011;4663;49.120;9.730;2023-01-08T10:11:16;46.57;;;44.33;;
9254;SDS011;4663;49.120;9.730;2023-01-08T10:13:50;46.33;;;44.00;;
9254;SDS011;4663;49.120;9.730;2023-01-08T10:16:23;45.90;;;43.73;;
9254;SDS011;4663;49.120;9.730;2023-01-08T10:18:54;45.80;;;43.57;;
9254;SDS011;4663;49.120;9.730;2023-01-08T10:21:19;42.10;;;40.00;;
9254;SDS011;4663;49.120;9.730;2023-01-08T10:23:57;39.63;;;37.67;;
9254;SDS011;4663;49.120;9.730;2023-01-08T10:26:32;34.33;;;32.70;;
9254;SDS011;4663;49.120;9.730;2023-01-08T10:29:16;33.60;;;32.00;;
9254;SDS011;4663;49.120;9.730;2023-01-08T10:31:47;37.80;;;36.03;;
9254;SDS011;4663;49.120;9.730;2023-01-08T10:34:17;33.97;;;32.37;;
9254;SDS011;4663;49.120;9.730;2023-01-08T10:40:13;36.83;;;35.00;;
9254;SDS011;4663;49.120;9.730;2023-01-08T10:42:44;33.63;;;31.87;;
9254;SDS011;4663;49.120;9.730;2023-01-08T10:45:14;32.53;;;30.93;;
9254;SDS011;4663;49.120;9.730;2023-01-08T10:47:48;32.97;;;31.33;;
9254;SDS011;4663;49.120;9.730;2023-01-08T10:50:24;35.23;;;33.30;;
9254;SDS011;4663;49.120;9.730;2023-01-08T10:52:59;29.87;;;28.23;;
9254;SDS011;4663;49.120;9.730;2023-01-08T10:55:30;29.33;;;27.73;;
9254;SDS011;4663;49.120;9.730;2023-01-08T11:00:37;29.47;;;27.97;;
9254;SDS011;4663;49.120;9.730;2023-01-08T11:03:05;28.87;;;27.37;;
9254;SDS011;4663;49.120;9.730;2023-01-08T11:08:05;26.43;;;25.03;;
9254;SDS011;4663;49.120;9.730;2023-01-08T11:10:37;50.23;;;47.83;;
9254;SDS011;4663;49.120;9.730;2023-01-08T11:13:03;22.80;;;21.70;;
9254;SDS011;4663;49.120;9.730;2023-01-08T11:18:30;20.40;;;19.40;;
9254;SDS011;4663;49.120;9.730;2023-01-08T11:20:50;22.90;;;21.80;;
9254;SDS011;4663;49.120;9.730;2023-01-08T11:23:26;19.53;;;18.53;;
9254;SDS011;4663;49.120;9.730;2023-01-08T11:26:03;20.40;;;19.40;;
9254;SDS011;4663;49.120;9.730;2023-01-08T11:34:26;17.63;;;16.73;;
9254;SDS011;4663;49.120;9.730;2023-01-08T11:37:02;17.97;;;17.07;;
9254;SDS011;4663;49.120;9.730;2023-01-08T11:39:34;17.38;;;16.38;;
9254;SDS011;4663;49.120;9.730;2023-01-08T11:44:38;16.97;;;16.07;;
9254;SDS011;4663;49.120;9.730;2023-01-08T11:50:22;16.23;;;15.43;;
9254;SDS011;4663;49.120;9.730;2023-01-08T12:01:47;15.63;;;14.87;;
9254;SDS011;4663;49.120;9.730;2023-01-08T12:07:13;17.80;;;16.90;;
9254;SDS011;4663;49.120;9.730;2023-01-08T12:18:18;15.87;;;15.07;;
9254;SDS011;4663;49.120;9.730;2023-01-08T12:23:37;16.42;;;15.60;;
9254;SDS011;4663;49.120;9.730;2023-01-08T12:34:43;16.10;;;15.27;;
9254;SDS011;4663;49.120;9.730;2023-01-08T12:39:57;15.90;;;15.13;;
9254;SDS011;4663;49.120;9.730;2023-01-08T12:42:48;15.87;;;15.07;;
9254;SDS011;4663;49.120;9.730;2023-01-08T12:47:52;17.87;;;16.97;;
9254;SDS011;4663;49.120;9.730;2023-01-08T12:50:26;18.53;;;17.57;;
9254;SDS011;4663;49.120;9.730;2023-01-08T13:03:50;17.50;;;16.63;;
9254;SDS011;4663;49.120;9.730;2023-01-08T13:06:17;21.93;;;20.90;;
9254;SDS011;4663;49.120;9.730;2023-01-08T13:08:45;21.85;;;20.75;;
9254;SDS011;4663;49.120;9.730;2023-01-08T13:11:22;22.87;;;21.77;;
9254;SDS011;4663;49.120;9.730;2023-01-08T13:13:59;21.33;;;20.33;;
9254;SDS011;4663;49.120;9.730;2023-01-08T13:16:28;20.95;;;19.80;;
9254;SDS011;4663;49.120;9.730;2023-01-08T13:18:59;21.87;;;20.77;;
9254;SDS011;4663;49.120;9.730;2023-01-08T13:26:54;21.63;;;20.63;;
9254;SDS011;4663;49.120;9.730;2023-01-08T13:29:37;24.33;;;23.20;;
9254;SDS011;4663;49.120;9.730;2023-01-08T13:32:21;23.95;;;22.80;;
9254;SDS011;4663;49.120;9.730;2023-01-08T13:37:39;24.63;;;23.38;;
9254;SDS011;4663;49.120;9.730;2023-01-08T13:43:14;25.77;;;24.52;;
9254;SDS011;4663;49.120;9.730;2023-01-08T13:45:53;28.20;;;26.67;;
9254;SDS011;4663;49.120;9.730;2023-01-08T13:48:34;25.50;;;24.30;;
9254;SDS011;4663;49.120;9.730;2023-01-08T13:51:28;26.20;;;24.90;;
9254;SDS011;4663;49.120;9.730;2023-01-08T13:53:58;26.60;;;25.35;;
9254;SDS011;4663;49.120;9.730;2023-01-08T13:56:30;26.58;;;25.25;;
9254;SDS011;4663;49.120;9.730;2023-01-08T13:58:56;29.20;;;27.80;;
9254;SDS011;4663;49.120;9.730;2023-01-08T14:01:21;32.10;;;30.53;;
9254;SDS011;4663;49.120;9.730;2023-01-08T14:03:47;29.35;;;28.00;;
9254;SDS011;4663;49.120;9.730;2023-01-08T14:08:50;28.37;;;26.97;;
9254;SDS011;4663;49.120;9.730;2023-01-08T14:11:22;24.55;;;23.35;;
9254;SDS011;4663;49.120;9.730;2023-01-08T14:13:52;25.67;;;24.47;;
9254;SDS011;4663;49.120;9.730;2023-01-08T14:16:18;26.05;;;24.77;;
9254;SDS011;4663;49.120;9.730;2023-01-08T14:18:44;22.77;;;21.63;;
9254;SDS011;4663;49.120;9.730;2023-01-08T14:21:11;24.63;;;23.48;;
9254;SDS011;4663;49.120;9.730;2023-01-08T14:23:39;26.17;;;24.92;;
9254;SDS011;4663;49.120;9.730;2023-01-08T14:26:07;27.05;;;25.77;;
9254;SDS011;4663;49.120;9.730;2023-01-08T14:28:39;30.60;;;29.07;;
9254;SDS011;4663;49.120;9.730;2023-01-08T14:31:18;33.10;;;31.55;;
9254;SDS011;4663;49.120;9.730;2023-01-08T14:33:46;36.90;;;35.10;;
9254;SDS011;4663;49.120;9.730;2023-01-08T14:36:12;32.53;;;31.00;;
9254;SDS011;4663;49.120;9.730;2023-01-08T14:38:38;33.20;;;31.58;;
9254;SDS011;4663;49.120;9.730;2023-01-08T14:41:08;31.52;;;30.02;;
9254;SDS011;4663;49.120;9.730;2023-01-08T14:43:46;30.85;;;29.40;;
9254;SDS011;4663;49.120;9.730;2023-01-08T14:46:17;29.42;;;28.02;;
9254;SDS011;4663;49.120;9.730;2023-01-08T14:48:45;25.50;;;24.30;;
9254;SDS011;4663;49.120;9.730;2023-01-08T14:51:13;27.98;;;26.63;;
9254;SDS011;4663;49.120;9.730;2023-01-08T14:53:45;26.73;;;25.33;;
9254;SDS011;4663;49.120;9.730;2023-01-08T14:56:14;26.47;;;25.13;;
9254;SDS011;4663;49.120;9.730;2023-01-08T14:58:43;25.43;;;24.13;;
9254;SDS011;4663;49.120;9.730;2023-01-08T15:01:29;26.37;;;24.97;;
9254;SDS011;4663;49.120;9.730;2023-01-08T15:04:04;21.37;;;20.27;;
9254;SDS011;4663;49.120;9.730;2023-01-08T15:06:44;15.30;;;14.47;;
9254;SDS011;4663;49.120;9.730;2023-01-08T15:09:22;13.87;;;13.17;;
9254;SDS011;4663;49.120;9.730;2023-01-08T15:11:50;13.37;;;12.67;;
9254;SDS011;4663;49.120;9.730;2023-01-08T15:14:27;14.13;;;13.43;;
9254;SDS011;4663;49.120;9.730;2023-01-08T15:17:07;16.20;;;15.40;;
9254;SDS011;4663;49.120;9.730;2023-01-08T15:19:39;17.43;;;16.53;;
9254;SDS011;4663;49.120;9.730;2023-01-08T15:22:17;18.40;;;17.40;;
9254;SDS011;4663;49.120;9.730;2023-01-08T15:24:50;21.70;;;20.67;;
9254;SDS011;4663;49.120;9.730;2023-01-08T15:27:23;22.80;;;21.67;;
9254;SDS011;4663;49.120;9.730;2023-01-08T15:29:53;22.90;;;21.80;;
9254;SDS011;4663;49.120;9.730;2023-01-08T15:32:26;24.77;;;23.50;;
9254;SDS011;4663;49.120;9.730;2023-01-08T15:34:58;26.23;;;24.93;;
9254;SDS011;4663;49.120;9.730;2023-01-08T15:37:24;27.43;;;25.77;;
9254;SDS011;4663;49.120;9.730;2023-01-08T15:39:50;27.50;;;26.17;;
9254;SDS011;4663;49.120;9.730;2023-01-08T15:45:03;32.53;;;30.97;;
9254;SDS011;4663;49.120;9.730;2023-01-08T15:47:30;33.40;;;31.83;;
9254;SDS011;4663;49.120;9.730;2023-01-08T15:49:57;32.67;;;30.97;;
9254;SDS011;4663;49.120;9.730;2023-01-08T15:52:23;35.93;;;33.93;;
9254;SDS011;4663;49.120;9.730;2023-01-08T15:54:54;34.17;;;32.53;;
9254;SDS011;4663;49.120;9.730;2023-01-08T15:57:24;35.63;;;33.90;;
9254;SDS011;4663;49.120;9.730;2023-01-08T15:59:49;36.73;;;34.97;;
9254;SDS011;4663;49.120;9.730;2023-01-08T16:02:15;41.17;;;39.07;;
9254;SDS011;4663;49.120;9.730;2023-01-08T16:04:41;40.00;;;38.07;;
9254;SDS011;4663;49.120;9.730;2023-01-08T16:07:07;42.80;;;40.73;;
9254;SDS011;4663;49.120;9.730;2023-01-08T16:09:32;43.20;;;41.07;;
9254;SDS011;4663;49.120;9.730;2023-01-08T16:11:57;44.23;;;42.07;;
9254;SDS011;4663;49.120;9.730;2023-01-08T16:14:23;44.33;;;42.10;;
9254;SDS011;4663;49.120;9.730;2023-01-08T16:16:48;42.30;;;40.23;;
9254;SDS011;4663;49.120;9.730;2023-01-08T16:19:14;41.83;;;39.67;;
9254;SDS011;4663;49.120;9.730;2023-01-08T16:21:39;46.00;;;43.73;;
9254;SDS011;4663;49.120;9.730;2023-01-08T16:24:11;44.30;;;42.10;;
9254;SDS011;4663;49.120;9.730;2023-01-08T16:26:37;42.70;;;40.60;;
9254;SDS011;4663;49.120;9.730;2023-01-08T16:29:02;43.90;;;41.60;;
9254;SDS011;4663;49.120;9.730;2023-01-08T16:31:28;42.30;;;40.20;;
9254;SDS011;4663;49.120;9.730;2023-01-08T16:33:53;47.67;;;45.37;;
9254;SDS011;4663;49.120;9.730;2023-01-08T16:36:19;43.87;;;41.77;;
9254;SDS011;4663;49.120;9.730;2023-01-08T16:38:44;43.60;;;41.17;;
9254;SDS011;4663;49.120;9.730;2023-01-08T16:41:12;46.63;;;44.47;;